Time;durP1;ratioP1;P1;durP2;ratioP2;P2;SDS_P1;SDS_P2;PMS_P1;PMS_P2;Temp;Humidity;BMP_temperature;BMP_pressure;BME280_temperature;BME280_humidity;BME280_pressure;Samples;Min_cycle;Max_cycle;Signal;HPM_P1;HPM_P2
2023/05/01 00:01:12;;;;;;;28.40;11.90;;;;;;;3.96;74.35;101846.13;5035177;28;20037;-55
2023/05/01 00:03:38;;;;;;;25.52;12.65;;;;;;;3.97;74.04;101850.47;5035733;28;20033;-56
2023/05/01 00:06:04;;;;;;;23.38;11.70;;;;;;;3.91;74.23;101850.44;5020646;28;20025;-56
2023/05/01 00:08:30;;;;;;;23.45;11.98;;;;;;;3.89;74.56;101846.97;5036523;28;20094;-56
2023/05/01 00:10:56;;;;;;;29.73;12.80;;;;;;;3.85;74.90;101844.34;5016937;28;20117;-55
2023/05/01 00:13:23;;;;;;;25.55;14.05;;;;;;;3.78;75.08;101845.25;5020091;28;20108;-56
2023/05/01 00:15:49;;;;;;;24.35;12.60;;;;;;;3.73;74.87;101838.25;5021464;28;20024;-55
2023/05/01 00:18:15;;;;;;;27.73;14.45;;;;;;;3.66;75.30;101840.00;5019567;28;20040;-56
2023/05/01 00:20:40;;;;;;;23.90;13.18;;;;;;;3.66;75.31;101842.59;5017149;28;20036;-56
2023/05/01 00:23:07;;;;;;;33.92;14.45;;;;;;;3.59;75.58;101851.34;5038313;28;20037;-56
2023/05/01 00:25:33;;;;;;;20.42;13.57;;;;;;;3.62;75.19;101843.50;5037616;28;20418;-56
2023/05/01 00:28:02;;;;;;;24.77;13.40;;;;;;;3.56;75.79;101843.47;5037971;28;20104;-56
2023/05/01 00:30:27;;;;;;;19.98;13.13;;;;;;;3.52;75.98;101841.75;5035358;28;20041;-56
2023/05/01 00:32:52;;;;;;;24.95;13.00;;;;;;;3.49;75.86;101846.09;5043036;28;20075;-56
2023/05/01 00:35:18;;;;;;;22.63;13.40;;;;;;;3.42;76.02;101836.50;5056163;28;20028;-56
2023/05/01 00:37:43;;;;;;;36.65;17.92;;;;;;;3.30;76.21;101837.38;5028169;28;20094;-56
2023/05/01 00:40:09;;;;;;;32.25;15.00;;;;;;;3.30;76.50;101836.47;5041542;28;20038;-56
2023/05/01 00:42:36;;;;;;;20.60;13.40;;;;;;;3.31;76.63;101830.38;5042734;28;20331;-56
2023/05/01 00:45:02;;;;;;;27.95;14.30;;;;;;;3.30;76.78;101826.91;5040771;28;20030;-56
2023/05/01 00:47:28;;;;;;;29.40;15.70;;;;;;;3.30;77.21;101831.25;5033903;28;20104;-56
2023/05/01 00:49:53;;;;;;;27.50;13.05;;;;;;;3.31;77.72;101827.78;5037568;28;20033;-56
2023/05/01 00:52:19;;;;;;;27.33;13.38;;;;;;;3.30;77.82;101826.91;5019805;28;20835;-55
2023/05/01 00:54:50;;;;;;;18.90;12.15;;;;;;;3.22;78.24;101827.75;5036262;28;20136;-56
2023/05/01 00:57:18;;;;;;;24.73;13.25;;;;;;;3.16;78.62;101825.16;5033434;28;20079;-56
2023/05/01 00:59:43;;;;;;;23.55;14.45;;;;;;;3.09;78.72;101822.50;5021922;28;20510;-56
2023/05/01 01:02:08;;;;;;;23.48;13.77;;;;;;;3.09;79.75;101813.78;5026825;28;20025;-56
2023/05/01 01:04:34;;;;;;;27.98;15.27;;;;;;;2.98;79.22;101828.56;5021188;28;20108;-56
2023/05/01 01:07:08;;;;;;;21.40;13.27;;;;;;;2.98;78.71;101821.59;5059756;28;20356;-56
2023/05/01 01:09:39;;;;;;;21.92;13.80;;;;;;;2.92;78.43;101826.81;5035336;28;20027;-56
2023/05/01 01:12:19;;;;;;;26.83;14.35;;;;;;;2.91;77.75;101817.22;5037514;28;20028;-59
2023/05/01 01:14:54;;;;;;;26.33;14.38;;;;;;;2.86;77.93;101811.09;5015945;28;20113;-57
2023/05/01 01:17:58;;;;;;;27.33;14.63;;;;;;;2.84;78.02;101812.84;5036541;28;20152;-57
2023/05/01 01:20:32;;;;;;;28.40;14.02;;;;;;;2.75;77.99;101811.09;5022579;28;20052;-57
2023/05/01 01:23:10;;;;;;;22.27;12.45;;;;;;;2.71;78.25;101805.00;5033269;28;20124;-58
2023/05/01 01:25:55;;;;;;;24.45;14.23;;;;;;;2.68;78.38;101809.31;5036274;28;20645;-57
2023/05/01 01:29:03;;;;;;;24.80;13.20;;;;;;;2.65;78.41;101802.34;5027197;28;20439;-57
2023/05/01 01:31:36;;;;;;;24.23;14.57;;;;;;;2.59;78.58;101794.47;5049608;28;20036;-57
2023/05/01 01:34:13;;;;;;;26.50;14.60;;;;;;;2.59;78.48;101804.94;5036484;28;20055;-57
2023/05/01 01:37:10;;;;;;;31.25;14.63;;;;;;;2.56;78.62;101803.16;5017481;28;20121;-57
2023/05/01 01:39:42;;;;;;;29.50;13.30;;;;;;;2.60;78.48;101801.47;4992796;28;20126;-57
2023/05/01 01:42:08;;;;;;;20.85;13.70;;;;;;;2.58;78.15;101800.56;5041456;28;20465;-57
2023/05/01 01:44:40;;;;;;;25.85;13.90;;;;;;;2.64;78.25;101795.38;5040190;28;20036;-57
2023/05/01 01:47:07;;;;;;;25.00;13.60;;;;;;;2.65;77.76;101794.50;5017484;28;20476;-57
2023/05/01 01:49:34;;;;;;;23.73;13.75;;;;;;;2.67;77.62;101795.38;5015384;28;20029;-57
2023/05/01 01:52:02;;;;;;;22.45;12.50;;;;;;;2.63;77.73;101796.25;5036674;28;20116;-57
2023/05/01 01:54:36;;;;;;;23.92;13.32;;;;;;;2.62;77.78;101788.41;5023850;28;20068;-57
2023/05/01 01:57:03;;;;;;;24.73;14.13;;;;;;;2.52;77.72;101792.72;5044435;28;20147;-57
2023/05/01 01:59:33;;;;;;;28.13;13.10;;;;;;;2.45;78.01;101780.50;5024004;28;20438;-57
2023/05/01 02:02:00;;;;;;;27.38;14.70;;;;;;;2.42;78.42;101786.59;5033692;28;20064;-57
2023/05/01 02:04:26;;;;;;;18.77;13.18;;;;;;;2.45;78.62;101786.56;5032672;28;20036;-57
2023/05/01 02:06:54;;;;;;;18.58;13.57;;;;;;;2.43;78.94;101777.00;5034491;28;20033;-57
2023/05/01 02:09:21;;;;;;;22.52;13.18;;;;;;;2.43;79.21;101782.22;5035022;28;20044;-57
2023/05/01 02:11:48;;;;;;;20.40;12.48;;;;;;;2.39;78.61;101782.22;5031550;28;20040;-57
2023/05/01 02:14:14;;;;;;;22.25;14.15;;;;;;;2.36;78.67;101771.75;5024997;28;20430;-57
2023/05/01 02:16:40;;;;;;;22.67;12.50;;;;;;;2.29;78.83;101770.00;5035068;28;20035;-57
2023/05/01 02:19:06;;;;;;;23.85;12.85;;;;;;;2.26;78.94;101769.13;5051811;28;20123;-57
2023/05/01 02:21:33;;;;;;;23.42;12.88;;;;;;;2.23;79.23;101759.53;5016036;28;20109;-57
2023/05/01 02:24:00;;;;;;;27.00;13.73;;;;;;;2.17;79.27;101754.28;5018152;28;20029;-56
2023/05/01 02:26:26;;;;;;;23.58;13.13;;;;;;;2.17;79.31;101759.50;5017815;28;20040;-57
2023/05/01 02:28:52;;;;;;;22.90;13.75;;;;;;;2.15;79.71;101753.41;5034913;28;20101;-56
2023/05/01 02:31:17;;;;;;;25.45;13.40;;;;;;;2.07;80.09;101748.13;5050304;28;20437;-57
2023/05/01 02:33:43;;;;;;;24.30;14.23;;;;;;;2.06;80.10;101740.28;5056529;28;20086;-57
2023/05/01 02:36:08;;;;;;;25.42;14.25;;;;;;;2.05;80.06;101736.81;5057911;28;20025;-57
2023/05/01 02:38:34;;;;;;;29.50;14.43;;;;;;;2.16;79.90;101747.34;5056973;28;20037;-58
2023/05/01 02:40:59;;;;;;;26.58;15.57;;;;;;;2.09;80.41;101735.09;5054846;28;20029;-57
2023/05/01 02:43:26;;;;;;;33.35;16.38;;;;;;;2.01;80.88;101733.34;5056148;28;20334;-57
2023/05/01 02:45:52;;;;;;;28.15;15.63;;;;;;;2.10;80.76;101731.63;5038729;28;20178;-58
2023/05/01 02:48:21;;;;;;;31.48;18.10;;;;;;;2.11;80.87;101728.16;5037187;28;20385;-58
2023/05/01 02:50:48;;;;;;;35.90;17.77;;;;;;;2.00;80.73;101721.16;5036627;28;20052;-57
2023/05/01 02:53:14;;;;;;;26.00;16.13;;;;;;;1.94;80.25;101723.72;5054897;28;20091;-57
2023/05/01 02:55:41;;;;;;;31.40;17.83;;;;;;;1.91;80.63;101715.00;5029104;28;20079;-58
2023/05/01 02:58:07;;;;;;;26.80;16.75;;;;;;;1.94;80.26;101715.91;5035660;28;20045;-57
2023/05/01 03:00:32;;;;;;;38.50;20.35;;;;;;;1.88;80.61;101721.09;5049791;28;20144;-58
2023/05/01 03:02:57;;;;;;;30.83;19.00;;;;;;;1.87;80.35;101718.47;5054176;28;20404;-58
2023/05/01 03:05:23;;;;;;;32.78;17.23;;;;;;;1.87;79.87;101713.28;5044293;28;20082;-58
2023/05/01 03:07:50;;;;;;;31.08;16.27;;;;;;;1.84;79.71;101714.09;5034342;28;20067;-58
2023/05/01 03:10:15;;;;;;;26.98;16.60;;;;;;;1.76;80.15;101705.38;5043984;28;20430;-58
2023/05/01 03:12:41;;;;;;;29.88;17.92;;;;;;;1.72;80.44;101701.88;5023787;28;20044;-58
2023/05/01 03:15:07;;;;;;;32.63;17.88;;;;;;;1.67;80.75;101705.31;5053337;28;20069;-57
2023/05/01 03:17:33;;;;;;;38.55;19.52;;;;;;;1.65;81.58;101698.38;5032720;28;20041;-57
2023/05/01 03:19:58;;;;;;;55.70;26.00;;;;;;;1.65;82.09;101700.97;5048236;28;20036;-57
2023/05/01 03:22:23;;;;;;;57.05;27.10;;;;;;;1.60;81.75;101707.91;5052467;28;20037;-55
2023/05/01 03:24:49;;;;;;;46.63;25.20;;;;;;;1.62;81.34;101702.69;5032402;28;20115;-57
2023/05/01 03:27:15;;;;;;;35.75;20.83;;;;;;;1.63;81.29;101694.00;5040523;28;20064;-57
2023/05/01 03:29:40;;;;;;;37.83;19.30;;;;;;;1.59;81.39;101698.31;5051514;28;20744;-58
2023/05/01 03:32:06;;;;;;;28.85;16.45;;;;;;;1.60;81.04;101699.19;5050247;28;20029;-57
2023/05/01 03:34:31;;;;;;;34.33;17.73;;;;;;;1.58;81.21;101693.94;5051688;28;20037;-57
2023/05/01 03:36:57;;;;;;;31.63;16.83;;;;;;;1.55;81.44;101696.53;5042620;28;20044;-57
2023/05/01 03:39:22;;;;;;;34.08;16.48;;;;;;;1.55;81.49;101691.31;5045763;28;20103;-57
2023/05/01 03:41:47;;;;;;;29.10;18.08;;;;;;;1.57;80.97;101700.06;5055036;28;20120;-57
2023/05/01 03:44:13;;;;;;;31.33;16.05;;;;;;;1.57;80.73;101691.34;5051347;28;20127;-56
2023/05/01 03:46:38;;;;;;;39.78;14.57;;;;;;;1.57;80.68;101692.22;5055712;28;20037;-57
2023/05/01 03:49:04;;;;;;;23.33;14.32;;;;;;;1.62;80.85;101693.13;5036295;28;20029;-57
2023/05/01 03:51:29;;;;;;;20.92;14.05;;;;;;;1.59;81.34;101698.31;5043493;28;20041;-57
2023/05/01 03:53:57;;;;;;;32.63;15.60;;;;;;;1.56;80.94;101698.28;5034997;28;20053;-57
2023/05/01 03:56:24;;;;;;;28.90;14.80;;;;;;;1.60;80.90;101689.66;5035190;28;20038;-57
2023/05/01 03:58:52;;;;;;;26.73;14.77;;;;;;;1.56;80.82;101690.47;5022604;28;20446;-57
2023/05/01 04:01:18;;;;;;;26.60;15.20;;;;;;;1.53;81.18;101687.84;5017728;28;20108;-57
2023/05/01 04:03:44;;;;;;;23.00;14.43;;;;;;;1.52;81.37;101686.13;5035185;28;20025;-57
2023/05/01 04:06:11;;;;;;;23.20;13.35;;;;;;;1.57;81.42;101687.03;5040804;28;20033;-57
2023/05/01 04:08:36;;;;;;;29.08;13.65;;;;;;;1.62;81.08;101682.69;5035882;28;20042;-56
2023/05/01 04:11:01;;;;;;;23.75;14.38;;;;;;;1.59;81.32;101677.47;5047263;28;20427;-57
2023/05/01 04:13:27;;;;;;;21.73;13.05;;;;;;;1.61;81.32;101675.72;5048978;28;20036;-57
2023/05/01 04:15:54;;;;;;;34.05;13.35;;;;;;;1.72;81.14;101672.34;5051939;28;20072;-56
2023/05/01 04:18:20;;;;;;;22.58;12.77;;;;;;;1.69;81.09;101673.19;5052570;28;20048;-57
2023/05/01 04:20:45;;;;;;;26.63;12.60;;;;;;;1.72;80.92;101673.19;5047430;28;20075;-57
2023/05/01 04:23:11;;;;;;;22.23;13.88;;;;;;;1.72;80.93;101678.41;5045263;28;20036;-56
2023/05/01 04:25:37;;;;;;;25.92;13.20;;;;;;;1.79;80.79;101674.09;5051697;28;20041;-57
2023/05/01 04:28:02;;;;;;;25.13;13.90;;;;;;;1.83;80.45;101670.63;5054145;28;20036;-57
2023/05/01 04:30:29;;;;;;;25.60;13.25;;;;;;;1.85;80.84;101663.72;5066821;28;20029;-57
2023/05/01 04:32:56;;;;;;;28.67;14.85;;;;;;;1.90;80.75;101663.75;5036738;28;20033;-57
2023/05/01 04:35:22;;;;;;;21.42;13.00;;;;;;;1.91;80.62;101666.34;5050939;28;20025;-57
2023/05/01 04:37:47;;;;;;;23.17;13.73;;;;;;;2.00;80.36;101665.53;5047313;28;20364;-57
2023/05/01 04:40:13;;;;;;;29.30;12.15;;;;;;;2.05;80.39;101668.16;5053530;28;20033;-57
2023/05/01 04:42:38;;;;;;;24.02;12.85;;;;;;;2.07;80.52;101677.72;5053516;28;20043;-57
2023/05/01 04:45:04;;;;;;;18.05;10.75;;;;;;;2.10;80.40;101661.22;5051666;28;20111;-57
2023/05/01 04:47:29;;;;;;;17.85;12.13;;;;;;;2.24;80.09;101669.97;5044406;28;20028;-55
2023/05/01 04:49:55;;;;;;;22.70;11.75;;;;;;;2.26;79.61;101665.63;5051216;28;20120;-55
2023/05/01 04:52:20;;;;;;;20.90;12.77;;;;;;;2.34;79.69;101663.91;5050018;28;20072;-55
2023/05/01 04:54:46;;;;;;;21.90;12.02;;;;;;;2.41;79.52;101663.94;5045952;28;20530;-55
2023/05/01 04:57:11;;;;;;;24.42;10.43;;;;;;;2.46;78.93;101654.38;5048341;28;20028;-55
2023/05/01 04:59:36;;;;;;;17.65;11.48;;;;;;;2.59;78.34;101648.31;5052857;28;20460;-57
2023/05/01 05:02:02;;;;;;;18.40;10.68;;;;;;;2.70;78.02;101657.03;5042049;28;20068;-57
2023/05/01 05:04:28;;;;;;;23.27;11.35;;;;;;;2.80;77.72;101652.69;5035765;28;20033;-55
2023/05/01 05:06:53;;;;;;;16.75;9.80;;;;;;;2.96;76.97;101653.56;5036487;28;20029;-58
2023/05/01 05:09:18;;;;;;;21.42;9.77;;;;;;;3.07;75.95;101645.72;5041407;28;20112;-57
2023/05/01 05:11:44;;;;;;;15.95;10.23;;;;;;;3.25;75.12;101644.84;5048591;28;20021;-58
2023/05/01 05:14:09;;;;;;;19.25;10.13;;;;;;;3.35;74.75;101643.97;5049223;28;20033;-58
2023/05/01 05:16:35;;;;;;;17.08;10.02;;;;;;;3.47;74.45;101641.31;5042509;28;20413;-57
2023/05/01 05:19:00;;;;;;;16.45;9.35;;;;;;;3.51;74.24;101630.88;5039053;28;20499;-57
2023/05/01 05:21:25;;;;;;;14.40;8.68;;;;;;;3.70;73.11;101634.31;5042325;28;20480;-57
2023/05/01 05:23:51;;;;;;;17.83;8.77;;;;;;;3.79;72.89;101634.25;5038038;28;20032;-57
2023/05/01 05:26:17;;;;;;;15.30;8.13;;;;;;;3.92;72.23;101627.25;5036065;28;20026;-57
2023/05/01 05:28:42;;;;;;;17.73;8.50;;;;;;;4.03;71.74;101628.06;5039265;28;20037;-57
2023/05/01 05:31:08;;;;;;;15.93;8.05;;;;;;;4.21;70.51;101629.72;5044396;28;20059;-57
2023/05/01 05:33:33;;;;;;;12.25;7.20;;;;;;;4.38;69.40;101620.03;5045212;28;20164;-57
2023/05/01 05:35:59;;;;;;;15.82;7.72;;;;;;;4.40;69.83;101614.78;5034665;28;20314;-58
2023/05/01 05:38:24;;;;;;;15.65;8.38;;;;;;;4.51;68.53;101615.59;5033316;28;20029;-57
2023/05/01 05:40:50;;;;;;;12.57;7.70;;;;;;;4.57;68.96;101612.91;5052529;28;20025;-57
2023/05/01 05:43:15;;;;;;;13.93;7.05;;;;;;;4.66;68.04;101616.34;5040167;28;20038;-57
2023/05/01 05:45:40;;;;;;;11.25;7.03;;;;;;;4.78;68.23;101616.25;5048097;28;20027;-57
2023/05/01 05:48:06;;;;;;;15.25;7.70;;;;;;;4.89;67.74;101610.97;5050134;28;20048;-57
2023/05/01 05:50:31;;;;;;;14.30;7.65;;;;;;;5.05;66.24;101603.81;5047328;28;20445;-57
2023/05/01 05:52:57;;;;;;;14.02;6.47;;;;;;;5.14;66.49;101614.22;5033640;28;20033;-58
2023/05/01 05:55:22;;;;;;;12.98;7.25;;;;;;;5.35;64.54;101607.03;5032780;28;20171;-58
2023/05/01 05:57:48;;;;;;;9.98;5.68;;;;;;;5.56;64.11;101612.06;5032731;28;20029;-57
2023/05/01 06:00:14;;;;;;;16.60;6.88;;;;;;;5.72;63.78;101617.09;5032460;28;20032;-57
2023/05/01 06:02:39;;;;;;;12.48;7.25;;;;;;;5.85;63.24;101608.19;5036838;28;20030;-58
2023/05/01 06:05:05;;;;;;;11.15;6.80;;;;;;;6.04;61.86;101609.72;5035756;28;20033;-58
2023/05/01 06:07:31;;;;;;;14.13;6.05;;;;;;;6.14;61.07;101605.22;5044488;28;20435;-58
2023/05/01 06:10:03;;;;;;;11.80;6.13;;;;;;;6.33;60.82;101605.00;5039833;28;20031;-57
2023/05/01 06:12:29;;;;;;;10.77;5.85;;;;;;;6.56;60.28;101602.03;5045429;28;20086;-58
2023/05/01 06:14:54;;;;;;;12.98;6.45;;;;;;;6.68;59.95;101600.97;5034652;28;20029;-58
2023/05/01 06:17:20;;;;;;;13.68;6.03;;;;;;;6.77;59.82;101606.06;5052934;28;20128;-58
2023/05/01 06:19:45;;;;;;;13.32;5.72;;;;;;;6.94;58.01;101598.75;5050923;28;20058;-58
2023/05/01 06:22:10;;;;;;;13.00;6.18;;;;;;;7.03;58.46;101597.75;5050549;28;20037;-58
2023/05/01 06:24:36;;;;;;;10.57;5.68;;;;;;;7.20;57.88;101599.22;5041495;28;20036;-58
2023/05/01 06:27:02;;;;;;;14.15;5.78;;;;;;;7.33;57.19;101591.06;5051732;28;20568;-58
2023/05/01 06:29:27;;;;;;;11.30;5.30;;;;;;;7.46;56.95;101596.94;5043265;28;20030;-58
2023/05/01 06:31:52;;;;;;;15.80;5.72;;;;;;;7.64;55.96;101589.59;5043217;28;20389;-58
2023/05/01 06:34:18;;;;;;;22.25;5.80;;;;;;;7.75;55.06;101592.88;5043029;28;20039;-58
2023/05/01 06:36:43;;;;;;;12.35;5.47;;;;;;;7.83;55.64;101590.06;5045158;28;20059;-57
2023/05/01 06:39:09;;;;;;;15.68;5.43;;;;;;;8.01;54.62;101594.09;5044619;28;20040;-58
2023/05/01 06:41:34;;;;;;;11.15;4.95;;;;;;;8.09;54.86;101586.88;5041334;28;20044;-58
2023/05/01 06:44:00;;;;;;;14.77;5.05;;;;;;;8.26;53.56;101595.28;5048016;28;20044;-58
2023/05/01 06:46:25;;;;;;;13.98;5.18;;;;;;;8.42;52.78;101589.69;5035950;28;20047;-58
2023/05/01 06:48:51;;;;;;;9.70;4.75;;;;;;;8.51;52.42;101596.53;5050817;28;20031;-58
2023/05/01 06:51:16;;;;;;;11.82;5.57;;;;;;;8.60;52.67;101594.53;5039924;28;20061;-58
2023/05/01 06:53:42;;;;;;;10.18;4.97;;;;;;;8.73;52.66;101589.84;5045568;28;20056;-58
2023/05/01 06:56:07;;;;;;;11.00;4.97;;;;;;;8.90;52.15;101591.19;5044944;28;20029;-57
2023/05/01 06:58:33;;;;;;;10.07;5.28;;;;;;;9.08;52.22;101579.31;5037153;28;20095;-57
2023/05/01 07:00:58;;;;;;;15.13;6.03;;;;;;;9.25;51.31;101582.38;5042366;28;20472;-57
2023/05/01 07:03:26;;;;;;;12.75;4.88;;;;;;;9.48;51.26;101583.50;5036311;28;20116;-57
2023/05/01 07:05:52;;;;;;;11.77;4.35;;;;;;;9.67;49.57;101579.44;5048072;28;20021;-57
2023/05/01 07:08:17;;;;;;;12.05;5.57;;;;;;;9.89;48.70;101573.53;5036611;28;20055;-56
2023/05/01 07:10:43;;;;;;;11.40;4.78;;;;;;;9.99;48.97;101577.63;5045181;28;20048;-56
2023/05/01 07:13:08;;;;;;;8.35;4.32;;;;;;;10.29;49.00;101573.16;5045772;28;20075;-57
2023/05/01 07:15:33;;;;;;;13.02;4.88;;;;;;;10.39;47.76;101568.50;5051895;28;20033;-56
2023/05/01 07:18:01;;;;;;;9.98;4.82;;;;;;;10.52;48.67;101563.69;5053322;28;20501;-57
2023/05/01 07:20:27;;;;;;;12.07;5.65;;;;;;;10.56;47.93;101567.06;5036464;28;20113;-58
2023/05/01 07:22:52;;;;;;;11.15;4.65;;;;;;;10.52;48.70;101568.97;5040103;28;20108;-56
2023/05/01 07:25:19;;;;;;;11.60;5.32;;;;;;;10.60;48.34;101564.28;5036466;28;20414;-57
2023/05/01 07:27:44;;;;;;;10.77;4.18;;;;;;;10.74;48.67;101558.56;5047509;28;20037;-56
2023/05/01 07:30:10;;;;;;;8.70;4.82;;;;;;;10.86;48.27;101556.41;5045565;28;20036;-57
2023/05/01 07:32:35;;;;;;;12.60;4.50;;;;;;;11.07;48.76;101555.69;5026493;28;20036;-58
2023/05/01 07:35:00;;;;;;;7.10;3.63;;;;;;;11.17;47.48;101557.06;5041967;28;20120;-58
2023/05/01 07:37:26;;;;;;;9.95;4.07;;;;;;;11.26;47.27;101553.22;5055643;28;20381;-57
2023/05/01 07:39:51;;;;;;;11.82;4.63;;;;;;;11.37;47.00;101547.56;5052457;28;20129;-57
2023/05/01 07:42:17;;;;;;;11.77;4.60;;;;;;;11.38;47.01;101544.00;5054234;28;20112;-57
2023/05/01 07:44:42;;;;;;;5.68;3.28;;;;;;;11.46;46.19;101539.28;5055426;28;20402;-58
2023/05/01 07:47:07;;;;;;;14.02;3.70;;;;;;;11.48;46.84;101529.50;5050590;28;20064;-58
2023/05/01 07:49:37;;;;;;;13.05;3.35;;;;;;;11.60;47.18;101533.47;5037668;28;20034;-58
2023/05/01 07:52:04;;;;;;;12.15;4.35;;;;;;;11.84;45.97;101526.38;5044127;28;20113;-56
2023/05/01 07:54:30;;;;;;;15.57;4.25;;;;;;;12.10;45.47;101521.88;5051586;28;20057;-56
2023/05/01 07:56:55;;;;;;;15.98;4.93;;;;;;;12.26;45.75;101515.03;5049866;28;20091;-56
2023/05/01 07:59:20;;;;;;;9.38;3.90;;;;;;;12.51;44.77;101516.69;5046631;28;20744;-56
2023/05/01 08:01:46;;;;;;;11.43;3.55;;;;;;;12.69;43.16;101519.50;5046021;28;20033;-58
2023/05/01 08:04:11;;;;;;;8.00;4.43;;;;;;;12.80;42.56;101519.88;5044484;28;20502;-60
2023/05/01 08:06:37;;;;;;;7.38;2.92;;;;;;;12.77;42.17;101512.94;5046460;28;20029;-56
2023/05/01 08:09:02;;;;;;;9.70;3.53;;;;;;;12.93;41.82;101513.16;5034820;28;20025;-55
2023/05/01 08:11:28;;;;;;;5.75;3.00;;;;;;;13.02;41.81;101510.06;5034751;28;20053;-58
2023/05/01 08:13:54;;;;;;;8.57;3.92;;;;;;;13.17;41.90;101505.03;5032401;28;20119;-58
2023/05/01 08:16:19;;;;;;;8.35;3.50;;;;;;;13.25;41.22;101502.88;5027684;28;20132;-56
2023/05/01 08:18:45;;;;;;;14.18;3.88;;;;;;;13.33;41.04;101499.94;5054488;28;20044;-57
2023/05/01 08:21:10;;;;;;;11.15;3.60;;;;;;;13.42;40.44;101502.16;5054207;28;20440;-58
2023/05/01 08:23:36;;;;;;;13.63;3.63;;;;;;;13.53;39.55;101504.31;5054319;28;20021;-56
2023/05/01 08:26:01;;;;;;;8.18;4.13;;;;;;;13.70;39.12;101506.22;5052820;28;20057;-57
2023/05/01 08:28:27;;;;;;;9.02;4.38;;;;;;;13.60;38.48;101497.81;5049576;28;20516;-55
2023/05/01 08:30:52;;;;;;;10.60;3.80;;;;;;;13.54;39.21;101498.09;5043732;28;20103;-57
2023/05/01 08:33:18;;;;;;;9.48;3.58;;;;;;;13.66;38.63;101491.34;5051374;28;20051;-57
2023/05/01 08:35:43;;;;;;;10.25;2.60;;;;;;;13.62;39.77;101485.31;5025115;28;20038;-57
2023/05/01 08:38:10;;;;;;;9.02;3.60;;;;;;;13.82;38.94;101491.47;5050490;28;20029;-58
2023/05/01 08:40:37;;;;;;;10.45;4.40;;;;;;;13.97;39.39;101485.41;5053487;28;20044;-58
2023/05/01 08:43:03;;;;;;;9.38;3.70;;;;;;;14.15;39.70;101483.66;5043370;28;20056;-57
2023/05/01 08:45:34;;;;;;;6.05;3.40;;;;;;;14.28;39.46;101489.25;5035392;28;20016;-56
2023/05/01 08:48:03;;;;;;;9.98;3.45;;;;;;;14.12;38.52;101489.13;5035248;28;20501;-56
2023/05/01 08:50:30;;;;;;;11.65;3.55;;;;;;;14.08;38.94;101476.94;5034581;28;20509;-56
2023/05/01 08:52:57;;;;;;;9.93;3.88;;;;;;;14.22;38.64;101476.25;5052682;28;20116;-57
2023/05/01 08:55:23;;;;;;;8.40;3.35;;;;;;;14.27;38.10;101472.44;5034127;28;20086;-56
2023/05/01 08:57:49;;;;;;;9.95;3.72;;;;;;;14.68;38.58;101466.00;5032985;28;20507;-56
2023/05/01 09:00:19;;;;;;;8.52;3.72;;;;;;;14.89;37.73;101457.81;5018414;28;20025;-56
2023/05/01 09:02:46;;;;;;;6.65;3.38;;;;;;;14.84;36.34;101458.06;5035890;28;20045;-56
2023/05/01 09:05:14;;;;;;;16.30;3.67;;;;;;;14.84;36.61;101450.06;5052421;28;20021;-56
2023/05/01 09:07:40;;;;;;;8.13;3.17;;;;;;;15.11;36.52;101445.09;5025402;28;20025;-56
2023/05/01 09:10:06;;;;;;;8.93;3.47;;;;;;;15.18;35.13;101453.59;5046378;28;20717;-58
2023/05/01 09:12:34;;;;;;;8.18;2.90;;;;;;;15.24;35.68;101440.81;5030090;28;20057;-56
2023/05/01 09:15:01;;;;;;;7.60;4.43;;;;;;;15.31;34.74;101436.00;5016892;28;20037;-56
2023/05/01 09:17:27;;;;;;;6.60;2.92;;;;;;;15.26;35.10;101437.22;5044078;28;20033;-56
2023/05/01 09:19:53;;;;;;;7.43;3.50;;;;;;;15.38;34.39;101436.53;5029380;28;20342;-56
2023/05/01 09:22:19;;;;;;;9.50;3.10;;;;;;;15.42;34.42;101430.09;5038553;28;20566;-56
2023/05/01 09:24:45;;;;;;;7.55;3.58;;;;;;;15.60;34.79;101426.41;5041098;28;20104;-57
2023/05/01 09:27:12;;;;;;;8.30;2.72;;;;;;;15.55;34.08;101420.47;5048992;28;20025;-55
2023/05/01 09:29:41;;;;;;;6.40;3.17;;;;;;;15.63;34.35;101417.41;5041778;28;20033;-58
2023/05/01 09:32:13;;;;;;;9.25;2.90;;;;;;;15.81;34.37;101419.97;5014680;28;20463;-57
2023/05/01 09:34:39;;;;;;;10.50;3.50;;;;;;;15.99;34.55;101412.72;5035712;28;20339;-57
2023/05/01 09:37:05;;;;;;;11.02;3.45;;;;;;;15.84;34.99;101410.03;5038318;28;20041;-55
2023/05/01 09:39:30;;;;;;;11.13;3.17;;;;;;;16.10;34.69;101399.63;5052205;28;20029;-58
2023/05/01 09:41:56;;;;;;;5.18;3.17;;;;;;;16.29;35.22;101405.59;5052358;28;20052;-57
2023/05/01 09:44:21;;;;;;;5.53;2.95;;;;;;;16.28;34.48;101397.69;5050821;28;20021;-57
2023/05/01 09:46:48;;;;;;;9.80;3.17;;;;;;;16.32;34.34;101397.41;5048190;28;20397;-57
2023/05/01 09:49:14;;;;;;;13.70;3.42;;;;;;;16.46;34.14;101387.72;5035197;28;20296;-57
2023/05/01 09:51:39;;;;;;;4.75;2.67;;;;;;;16.42;34.44;101383.53;5032876;28;20040;-57
2023/05/01 09:54:17;;;;;;;7.90;3.55;;;;;;;16.65;34.65;101380.31;5040073;28;20049;-57
2023/05/01 09:56:47;;;;;;;7.72;3.58;;;;;;;16.59;35.13;101380.72;5045359;28;20365;-58
2023/05/01 09:59:19;;;;;;;13.05;3.70;;;;;;;16.83;33.98;101378.31;5017455;28;20064;-57
2023/05/01 10:01:46;;;;;;;9.45;4.25;;;;;;;16.73;34.24;101381.66;5041676;28;20029;-57
2023/05/01 10:04:12;;;;;;;9.38;2.92;;;;;;;16.84;33.66;101363.19;5051386;28;20413;-57
2023/05/01 10:06:39;;;;;;;6.85;3.38;;;;;;;17.06;33.57;101355.53;5050223;28;20048;-57
2023/05/01 10:09:15;;;;;;;8.45;3.25;;;;;;;16.85;34.03;101364.91;5052840;28;20036;-55
2023/05/01 10:11:50;;;;;;;8.48;3.50;;;;;;;17.01;33.71;101354.97;5028552;28;21293;-57
2023/05/01 10:14:16;;;;;;;9.13;3.30;;;;;;;17.06;32.88;101346.69;5024251;28;20397;-57
2023/05/01 10:16:42;;;;;;;8.00;3.40;;;;;;;17.21;33.16;101355.53;5043368;28;20033;-56
2023/05/01 10:19:08;;;;;;;7.57;3.47;;;;;;;17.41;33.42;101346.25;5049122;28;20039;-55
2023/05/01 10:21:34;;;;;;;9.07;2.60;;;;;;;17.41;32.64;101344.44;5047918;28;20043;-57
2023/05/01 10:24:02;;;;;;;5.20;3.28;;;;;;;17.42;31.05;101337.25;5012869;28;20458;-57
2023/05/01 10:26:28;;;;;;;9.00;3.67;;;;;;;17.20;31.06;101332.47;5037885;28;20022;-57
2023/05/01 10:28:54;;;;;;;7.82;3.17;;;;;;;17.76;31.36;101341.22;5036381;28;20488;-57
2023/05/01 10:31:19;;;;;;;8.23;3.38;;;;;;;17.77;29.94;101337.59;5044144;28;20063;-57
2023/05/01 10:33:46;;;;;;;9.48;4.38;;;;;;;17.51;30.75;101325.13;5043251;28;20052;-58
2023/05/01 10:36:20;;;;;;;11.27;3.88;;;;;;;17.54;30.58;101316.88;5043500;28;20429;-58
2023/05/01 10:38:47;;;;;;;6.32;3.10;;;;;;;17.61;31.15;101321.72;5034038;28;20025;-58
2023/05/01 10:41:14;;;;;;;8.25;3.47;;;;;;;17.86;29.04;101313.88;5049029;28;20033;-55
2023/05/01 10:43:40;;;;;;;9.35;3.80;;;;;;;17.95;29.90;101313.31;5052087;28;20037;-56
2023/05/01 10:46:08;;;;;;;5.43;3.22;;;;;;;18.08;29.24;101314.19;5028247;28;20055;-56
2023/05/01 10:48:37;;;;;;;8.32;3.55;;;;;;;17.87;28.97;101310.25;5045831;28;20067;-56
2023/05/01 10:51:16;;;;;;;6.85;3.20;;;;;;;17.78;30.13;101307.25;5048179;28;20730;-56
2023/05/01 10:53:42;;;;;;;8.50;4.10;;;;;;;17.99;29.72;101306.78;5053232;28;20106;-56
2023/05/01 10:56:20;;;;;;;12.32;4.38;;;;;;;18.14;28.92;101305.75;5055596;28;20124;-56
2023/05/01 10:58:50;;;;;;;7.75;3.72;;;;;;;18.12;29.65;101307.63;5053519;28;20040;-56
2023/05/01 11:01:35;;;;;;;14.13;3.35;;;;;;;18.30;28.78;101297.47;5044466;28;20124;-56
2023/05/01 11:04:22;;;;;;;9.63;3.22;;;;;;;18.73;27.56;101296.28;5049028;28;20087;-56
2023/05/01 11:07:09;;;;;;;5.85;3.10;;;;;;;19.39;26.49;101301.38;5048189;28;20037;-56
2023/05/01 11:09:42;;;;;;;9.90;3.47;;;;;;;19.84;26.99;101293.53;5042010;28;20037;-58
2023/05/01 11:12:10;;;;;;;7.57;4.05;;;;;;;19.75;26.39;101286.19;5044687;28;20033;-57
2023/05/01 11:15:01;;;;;;;7.88;4.03;;;;;;;19.22;27.06;101290.09;5039028;28;20029;-55
2023/05/01 11:17:38;;;;;;;10.05;4.45;;;;;;;20.16;25.94;101282.16;5045741;28;20099;-56
2023/05/01 11:20:07;;;;;;;9.43;4.00;;;;;;;21.60;24.37;101271.53;5046481;28;20056;-56
2023/05/01 11:22:34;;;;;;;7.53;3.80;;;;;;;23.15;22.60;101264.38;5043713;28;20056;-56